sensor_id;sensor_type;location;lat;lon;timestamp;pressure;altitude;pressure_sealevel;temperature;humidity
77153;BME280;66124;51.146;17.072;2023-08-06T00:00:56;99158.13;;;15.60;85.00
77153;BME280;66124;51.146;17.072;2023-08-06T00:03:46;99157.45;;;15.58;85.12
77153;BME280;66124;51.146;17.072;2023-08-06T00:06:15;99153.84;;;15.58;85.04
77153;BME280;66124;51.146;17.072;2023-08-06T00:08:44;99145.67;;;15.59;85.11
77153;BME280;66124;51.146;17.072;2023-08-06T00:11:14;99140.49;;;15.61;85.01
77153;BME280;66124;51.146;17.072;2023-08-06T00:13:43;99131.79;;;15.61;85.08
77153;BME280;66124;51.146;17.072;2023-08-06T00:16:13;99124.20;;;15.62;85.32
77153;BME280;66124;51.146;17.072;2023-08-06T00:18:44;99122.02;;;15.61;85.25
77153;BME280;66124;51.146;17.072;2023-08-06T00:21:15;99108.74;;;15.51;85.03
77153;BME280;66124;51.146;17.072;2023-08-06T00:23:45;99120.02;;;15.59;85.16
77153;BME280;66124;51.146;17.072;2023-08-06T00:26:15;99121.10;;;15.58;85.13
77153;BME280;66124;51.146;17.072;2023-08-06T00:28:44;99112.21;;;15.57;85.28
77153;BME280;66124;51.146;17.072;2023-08-06T00:31:13;99108.15;;;15.57;85.08
77153;BME280;66124;51.146;17.072;2023-08-06T00:33:43;99098.19;;;15.58;85.29
77153;BME280;66124;51.146;17.072;2023-08-06T00:36:12;99096.27;;;15.57;85.33
77153;BME280;66124;51.146;17.072;2023-08-06T00:38:41;99094.23;;;15.56;85.27
77153;BME280;66124;51.146;17.072;2023-08-06T00:41:11;99089.35;;;15.54;85.22
77153;BME280;66124;51.146;17.072;2023-08-06T00:43:40;99059.63;;;15.35;85.42
77153;BME280;66124;51.146;17.072;2023-08-06T00:46:10;99079.81;;;15.49;85.41
77153;BME280;66124;51.146;17.072;2023-08-06T00:48:40;99073.03;;;15.47;85.41
77153;BME280;66124;51.146;17.072;2023-08-06T00:51:12;99068.72;;;15.47;85.55
77153;BME280;66124;51.146;17.072;2023-08-06T00:53:41;99054.98;;;15.45;85.48
77153;BME280;66124;51.146;17.072;2023-08-06T00:56:12;99040.55;;;15.43;85.50
77153;BME280;66124;51.146;17.072;2023-08-06T00:58:42;99033.67;;;15.41;85.62
77153;BME280;66124;51.146;17.072;2023-08-06T01:01:11;99032.61;;;15.41;85.47
77153;BME280;66124;51.146;17.072;2023-08-06T01:03:39;99026.08;;;15.40;85.52
77153;BME280;66124;51.146;17.072;2023-08-06T01:11:11;98999.05;;;15.41;85.78
77153;BME280;66124;51.146;17.072;2023-08-06T01:13:47;98992.00;;;15.40;85.79
77153;BME280;66124;51.146;17.072;2023-08-06T01:16:19;98987.84;;;15.39;85.74
77153;BME280;66124;51.146;17.072;2023-08-06T01:18:50;98983.16;;;15.38;85.94
77153;BME280;66124;51.146;17.072;2023-08-06T01:21:20;98976.78;;;15.38;85.74
77153;BME280;66124;51.146;17.072;2023-08-06T01:23:49;98972.12;;;15.39;85.86
77153;BME280;66124;51.146;17.072;2023-08-06T01:26:25;98959.84;;;15.39;85.78
77153;BME280;66124;51.146;17.072;2023-08-06T01:29:02;98951.54;;;15.38;85.76
77153;BME280;66124;51.146;17.072;2023-08-06T01:31:38;98946.48;;;15.37;85.94
77153;BME280;66124;51.146;17.072;2023-08-06T01:34:16;98943.31;;;15.38;85.85
77153;BME280;66124;51.146;17.072;2023-08-06T01:36:46;98943.30;;;15.38;85.84
77153;BME280;66124;51.146;17.072;2023-08-06T01:39:16;98940.79;;;15.40;85.84
77153;BME280;66124;51.146;17.072;2023-08-06T01:41:46;98939.31;;;15.41;85.71
77153;BME280;66124;51.146;17.072;2023-08-06T01:44:15;98945.65;;;15.43;85.79
77153;BME280;66124;51.146;17.072;2023-08-06T01:46:45;98931.15;;;15.43;85.64
77153;BME280;66124;51.146;17.072;2023-08-06T01:49:15;98918.51;;;15.43;85.77
77153;BME280;66124;51.146;17.072;2023-08-06T01:51:44;98906.02;;;15.42;85.94
77153;BME280;66124;51.146;17.072;2023-08-06T01:54:13;98908.39;;;15.38;85.80
77153;BME280;66124;51.146;17.072;2023-08-06T01:56:43;98911.59;;;15.34;85.85
77153;BME280;66124;51.146;17.072;2023-08-06T01:59:12;98910.43;;;15.31;86.06
77153;BME280;66124;51.146;17.072;2023-08-06T02:01:42;98904.18;;;15.27;86.05
77153;BME280;66124;51.146;17.072;2023-08-06T02:04:11;98899.60;;;15.23;86.10
77153;BME280;66124;51.146;17.072;2023-08-06T02:06:40;98910.96;;;15.19;86.22
77153;BME280;66124;51.146;17.072;2023-08-06T02:09:10;98916.75;;;15.15;86.36
77153;BME280;66124;51.146;17.072;2023-08-06T02:11:39;98910.56;;;15.11;86.50
77153;BME280;66124;51.146;17.072;2023-08-06T02:14:09;98906.86;;;15.05;86.61
77153;BME280;66124;51.146;17.072;2023-08-06T02:16:38;98899.17;;;15.00;86.68
77153;BME280;66124;51.146;17.072;2023-08-06T02:19:08;98895.89;;;14.94;86.96
77153;BME280;66124;51.146;17.072;2023-08-06T02:21:35;98883.84;;;14.89;87.17
77153;BME280;66124;51.146;17.072;2023-08-06T02:24:04;98872.99;;;14.85;87.35
77153;BME280;66124;51.146;17.072;2023-08-06T02:31:25;98847.23;;;14.77;87.49
77153;BME280;66124;51.146;17.072;2023-08-06T02:33:54;98841.91;;;14.73;87.66
77153;BME280;66124;51.146;17.072;2023-08-06T02:36:24;98832.94;;;14.70;87.72
77153;BME280;66124;51.146;17.072;2023-08-06T02:38:53;98810.82;;;14.67;87.93
77153;BME280;66124;51.146;17.072;2023-08-06T02:41:23;98797.17;;;14.63;88.11
77153;BME280;66124;51.146;17.072;2023-08-06T02:43:53;98801.73;;;14.60;88.14
77153;BME280;66124;51.146;17.072;2023-08-06T02:46:23;98788.76;;;14.59;88.21
77153;BME280;66124;51.146;17.072;2023-08-06T02:48:52;98787.78;;;14.57;88.27
77153;BME280;66124;51.146;17.072;2023-08-06T02:51:21;98790.20;;;14.56;88.45
77153;BME280;66124;51.146;17.072;2023-08-06T02:53:51;98793.22;;;14.55;88.33
77153;BME280;66124;51.146;17.072;2023-08-06T02:56:20;98796.11;;;14.54;88.46
77153;BME280;66124;51.146;17.072;2023-08-06T02:58:50;98795.81;;;14.52;88.49
77153;BME280;66124;51.146;17.072;2023-08-06T03:01:19;98796.17;;;14.51;88.54
77153;BME280;66124;51.146;17.072;2023-08-06T03:03:49;98792.37;;;14.49;88.61
77153;BME280;66124;51.146;17.072;2023-08-06T03:06:18;98793.35;;;14.48;88.69
77153;BME280;66124;51.146;17.072;2023-08-06T03:08:47;98789.67;;;14.46;88.78
77153;BME280;66124;51.146;17.072;2023-08-06T03:11:17;98789.64;;;14.45;88.87
77153;BME280;66124;51.146;17.072;2023-08-06T03:13:46;98798.55;;;14.45;88.84
77153;BME280;66124;51.146;17.072;2023-08-06T03:16:16;98799.22;;;14.44;88.97
77153;BME280;66124;51.146;17.072;2023-08-06T03:18:45;98801.85;;;14.43;89.01
77153;BME280;66124;51.146;17.072;2023-08-06T03:21:14;98810.70;;;14.43;89.08
77153;BME280;66124;51.146;17.072;2023-08-06T03:23:44;98810.51;;;14.43;89.05
77153;BME280;66124;51.146;17.072;2023-08-06T03:26:15;98809.23;;;14.43;89.04
77153;BME280;66124;51.146;17.072;2023-08-06T03:28:45;98795.86;;;14.43;89.11
77153;BME280;66124;51.146;17.072;2023-08-06T03:31:14;98781.20;;;14.42;89.12
77153;BME280;66124;51.146;17.072;2023-08-06T03:33:44;98771.56;;;14.42;89.16
77153;BME280;66124;51.146;17.072;2023-08-06T03:36:13;98773.47;;;14.42;89.08
77153;BME280;66124;51.146;17.072;2023-08-06T03:38:43;98769.98;;;14.43;88.99
77153;BME280;66124;51.146;17.072;2023-08-06T03:41:10;98767.21;;;14.43;89.04
77153;BME280;66124;51.146;17.072;2023-08-06T03:43:38;98770.76;;;14.42;88.96
77153;BME280;66124;51.146;17.072;2023-08-06T03:50:48;98758.23;;;14.43;88.77
77153;BME280;66124;51.146;17.072;2023-08-06T03:53:17;98758.25;;;14.43;88.89
77153;BME280;66124;51.146;17.072;2023-08-06T03:55:46;98758.35;;;14.43;88.95
77153;BME280;66124;51.146;17.072;2023-08-06T03:58:16;98755.27;;;14.43;88.86
77153;BME280;66124;51.146;17.072;2023-08-06T04:00:45;98755.52;;;14.41;88.92
77153;BME280;66124;51.146;17.072;2023-08-06T04:03:16;98760.85;;;14.41;88.78
77153;BME280;66124;51.146;17.072;2023-08-06T04:05:45;98768.44;;;14.40;89.01
77153;BME280;66124;51.146;17.072;2023-08-06T04:08:15;98770.80;;;14.39;88.92
77153;BME280;66124;51.146;17.072;2023-08-06T04:10:44;98771.37;;;14.38;88.83
77153;BME280;66124;51.146;17.072;2023-08-06T04:13:14;98770.10;;;14.35;88.96
77153;BME280;66124;51.146;17.072;2023-08-06T04:15:43;98764.17;;;14.32;89.07
77153;BME280;66124;51.146;17.072;2023-08-06T04:18:13;98759.14;;;14.27;89.16
77153;BME280;66124;51.146;17.072;2023-08-06T04:20:45;98767.18;;;14.27;89.06
77153;BME280;66124;51.146;17.072;2023-08-06T04:23:15;98754.77;;;14.15;89.01
77153;BME280;66124;51.146;17.072;2023-08-06T04:25:44;98771.04;;;14.24;89.07
77153;BME280;66124;51.146;17.072;2023-08-06T04:28:13;98779.05;;;14.26;89.07
77153;BME280;66124;51.146;17.072;2023-08-06T04:30:43;98775.26;;;14.26;89.12
77153;BME280;66124;51.146;17.072;2023-08-06T04:33:12;98766.69;;;14.24;89.16
77153;BME280;66124;51.146;17.072;2023-08-06T04:35:42;98768.64;;;14.20;89.37
77153;BME280;66124;51.146;17.072;2023-08-06T04:38:11;98778.84;;;14.16;89.35
77153;BME280;66124;51.146;17.072;2023-08-06T04:40:40;98782.14;;;14.13;89.51
77153;BME280;66124;51.146;17.072;2023-08-06T04:43:10;98769.83;;;14.11;89.53
77153;BME280;66124;51.146;17.072;2023-08-06T04:45:39;98759.09;;;14.08;89.66
77153;BME280;66124;51.146;17.072;2023-08-06T04:48:14;98752.73;;;14.06;89.80
77153;BME280;66124;51.146;17.072;2023-08-06T04:50:46;98749.35;;;14.04;89.78
77153;BME280;66124;51.146;17.072;2023-08-06T04:53:16;98741.98;;;14.02;90.04
77153;BME280;66124;51.146;17.072;2023-08-06T04:55:46;98725.39;;;14.01;90.04
77153;BME280;66124;51.146;17.072;2023-08-06T04:58:15;98718.77;;;14.00;90.10
77153;BME280;66124;51.146;17.072;2023-08-06T05:00:45;98731.98;;;14.00;90.21
77153;BME280;66124;51.146;17.072;2023-08-06T05:03:12;98738.42;;;14.00;90.32
77153;BME280;66124;51.146;17.072;2023-08-06T05:08:03;98741.48;;;14.02;90.20
77153;BME280;66124;51.146;17.072;2023-08-06T05:10:32;98740.80;;;13.99;90.29
77153;BME280;66124;51.146;17.072;2023-08-06T05:13:02;98735.09;;;14.00;90.21
77153;BME280;66124;51.146;17.072;2023-08-06T05:15:31;98733.44;;;14.00;90.36
77153;BME280;66124;51.146;17.072;2023-08-06T05:18:01;98730.89;;;13.99;90.35
77153;BME280;66124;51.146;17.072;2023-08-06T05:20:31;98728.44;;;13.99;90.23
77153;BME280;66124;51.146;17.072;2023-08-06T05:23:04;98723.56;;;13.99;90.39
77153;BME280;66124;51.146;17.072;2023-08-06T05:25:35;98712.69;;;13.98;90.33
77153;BME280;66124;51.146;17.072;2023-08-06T05:28:05;98711.90;;;13.99;90.53
77153;BME280;66124;51.146;17.072;2023-08-06T05:30:38;98703.25;;;13.99;90.44
77153;BME280;66124;51.146;17.072;2023-08-06T05:33:08;98702.35;;;13.98;90.70
77153;BME280;66124;51.146;17.072;2023-08-06T05:35:37;98702.80;;;13.97;90.69
77153;BME280;66124;51.146;17.072;2023-08-06T05:38:07;98705.57;;;13.98;90.60
77153;BME280;66124;51.146;17.072;2023-08-06T05:40:36;98698.75;;;13.98;90.60
77153;BME280;66124;51.146;17.072;2023-08-06T05:43:06;98696.15;;;13.98;90.54
77153;BME280;66124;51.146;17.072;2023-08-06T05:45:35;98699.84;;;13.97;90.48
77153;BME280;66124;51.146;17.072;2023-08-06T05:48:05;98717.07;;;13.97;90.83
77153;BME280;66124;51.146;17.072;2023-08-06T05:50:34;98724.30;;;13.99;90.78
77153;BME280;66124;51.146;17.072;2023-08-06T05:53:04;98717.36;;;13.99;90.57
77153;BME280;66124;51.146;17.072;2023-08-06T05:55:33;98699.09;;;13.99;90.73
77153;BME280;66124;51.146;17.072;2023-08-06T05:58:02;98686.89;;;14.00;90.66
77153;BME280;66124;51.146;17.072;2023-08-06T06:00:32;98681.08;;;13.99;90.71
77153;BME280;66124;51.146;17.072;2023-08-06T06:03:02;98679.27;;;14.00;90.77
77153;BME280;66124;51.146;17.072;2023-08-06T06:05:31;98676.18;;;13.99;90.84
77153;BME280;66124;51.146;17.072;2023-08-06T06:08:01;98684.53;;;13.98;90.52
77153;BME280;66124;51.146;17.072;2023-08-06T06:10:31;98697.23;;;13.99;90.69
77153;BME280;66124;51.146;17.072;2023-08-06T06:13:00;98701.48;;;14.00;90.70
77153;BME280;66124;51.146;17.072;2023-08-06T06:15:30;98701.07;;;14.01;90.67
77153;BME280;66124;51.146;17.072;2023-08-06T06:17:59;98699.95;;;14.01;90.69
77153;BME280;66124;51.146;17.072;2023-08-06T06:20:27;98693.58;;;14.00;90.65
77153;BME280;66124;51.146;17.072;2023-08-06T06:28:04;98711.63;;;14.02;90.60
77153;BME280;66124;51.146;17.072;2023-08-06T06:30:34;98724.30;;;14.01;90.79
77153;BME280;66124;51.146;17.072;2023-08-06T06:33:03;98729.13;;;14.02;90.64
77153;BME280;66124;51.146;17.072;2023-08-06T06:35:33;98730.05;;;14.03;90.63
77153;BME280;66124;51.146;17.072;2023-08-06T06:38:02;98721.95;;;14.04;90.69
77153;BME280;66124;51.146;17.072;2023-08-06T06:40:33;98704.73;;;14.04;90.67
77153;BME280;66124;51.146;17.072;2023-08-06T06:43:02;98695.08;;;14.04;90.77
77153;BME280;66124;51.146;17.072;2023-08-06T06:45:32;98689.48;;;14.02;90.76
77153;BME280;66124;51.146;17.072;2023-08-06T06:48:01;98684.88;;;14.03;90.82
77153;BME280;66124;51.146;17.072;2023-08-06T06:50:31;98682.41;;;14.01;90.95
77153;BME280;66124;51.146;17.072;2023-08-06T06:53:01;98679.05;;;14.00;90.94
77153;BME280;66124;51.146;17.072;2023-08-06T06:55:30;98680.71;;;14.01;90.97
77153;BME280;66124;51.146;17.072;2023-08-06T06:57:59;98687.18;;;14.01;91.03
77153;BME280;66124;51.146;17.072;2023-08-06T07:00:29;98691.52;;;14.00;91.04
77153;BME280;66124;51.146;17.072;2023-08-06T07:02:59;98693.76;;;14.01;91.00
77153;BME280;66124;51.146;17.072;2023-08-06T07:05:31;98695.39;;;14.00;90.98
77153;BME280;66124;51.146;17.072;2023-08-06T07:08:00;98690.79;;;14.01;91.20
77153;BME280;66124;51.146;17.072;2023-08-06T07:10:30;98682.73;;;14.01;91.18
77153;BME280;66124;51.146;17.072;2023-08-06T07:12:59;98679.90;;;14.04;91.10
77153;BME280;66124;51.146;17.072;2023-08-06T07:15:28;98680.93;;;14.05;91.12
77153;BME280;66124;51.146;17.072;2023-08-06T07:17:58;98683.06;;;14.06;91.06
77153;BME280;66124;51.146;17.072;2023-08-06T07:20:27;98681.17;;;14.09;91.14
77153;BME280;66124;51.146;17.072;2023-08-06T07:22:56;98674.85;;;14.11;91.15
77153;BME280;66124;51.146;17.072;2023-08-06T07:25:26;98670.13;;;14.14;91.16
77153;BME280;66124;51.146;17.072;2023-08-06T07:27:55;98664.23;;;14.17;91.18
77153;BME280;66124;51.146;17.072;2023-08-06T07:30:25;98653.50;;;14.19;91.13
77153;BME280;66124;51.146;17.072;2023-08-06T07:32:55;98651.84;;;14.18;91.24
77153;BME280;66124;51.146;17.072;2023-08-06T07:35:24;98645.26;;;14.11;91.03
77153;BME280;66124;51.146;17.072;2023-08-06T07:37:53;98661.57;;;14.22;91.05
77153;BME280;66124;51.146;17.072;2023-08-06T07:40:20;98668.59;;;14.24;91.20
77153;BME280;66124;51.146;17.072;2023-08-06T07:49:50;98637.32;;;14.30;91.37
77153;BME280;66124;51.146;17.072;2023-08-06T07:52:19;98633.50;;;14.30;91.12
77153;BME280;66124;51.146;17.072;2023-08-06T07:54:49;98637.80;;;14.31;91.12
77153;BME280;66124;51.146;17.072;2023-08-06T07:57:18;98638.27;;;14.27;91.20
77153;BME280;66124;51.146;17.072;2023-08-06T07:59:47;98650.70;;;14.33;91.06
77153;BME280;66124;51.146;17.072;2023-08-06T08:02:18;98647.94;;;14.34;90.93
77153;BME280;66124;51.146;17.072;2023-08-06T08:04:47;98640.73;;;14.34;91.04
77153;BME280;66124;51.146;17.072;2023-08-06T08:07:17;98631.79;;;14.36;91.01
77153;BME280;66124;51.146;17.072;2023-08-06T08:09:47;98622.60;;;14.37;91.09
77153;BME280;66124;51.146;17.072;2023-08-06T08:12:17;98614.90;;;14.37;90.97
77153;BME280;66124;51.146;17.072;2023-08-06T08:14:46;98612.44;;;14.37;90.94
77153;BME280;66124;51.146;17.072;2023-08-06T08:17:15;98603.70;;;14.36;90.92
77153;BME280;66124;51.146;17.072;2023-08-06T08:19:45;98591.19;;;14.34;90.99
77153;BME280;66124;51.146;17.072;2023-08-06T08:22:14;98583.94;;;14.35;91.01
77153;BME280;66124;51.146;17.072;2023-08-06T08:24:44;98571.05;;;14.35;90.95
77153;BME280;66124;51.146;17.072;2023-08-06T08:27:13;98559.81;;;14.35;91.05
77153;BME280;66124;51.146;17.072;2023-08-06T08:29:43;98557.11;;;14.36;91.09
77153;BME280;66124;51.146;17.072;2023-08-06T08:32:12;98560.92;;;14.35;90.95
77153;BME280;66124;51.146;17.072;2023-08-06T08:34:41;98558.66;;;14.36;91.06
77153;BME280;66124;51.146;17.072;2023-08-06T08:37:11;98554.06;;;14.37;91.18
77153;BME280;66124;51.146;17.072;2023-08-06T08:39:40;98553.92;;;14.38;91.10
77153;BME280;66124;51.146;17.072;2023-08-06T08:42:11;98555.70;;;14.40;91.02
77153;BME280;66124;51.146;17.072;2023-08-06T08:44:41;98560.69;;;14.41;91.02
77153;BME280;66124;51.146;17.072;2023-08-06T08:47:11;98566.04;;;14.44;90.98
77153;BME280;66124;51.146;17.072;2023-08-06T08:49:42;98567.14;;;14.46;91.07
77153;BME280;66124;51.146;17.072;2023-08-06T08:52:13;98569.91;;;14.48;90.94
77153;BME280;66124;51.146;17.072;2023-08-06T08:54:44;98563.77;;;14.49;90.95
77153;BME280;66124;51.146;17.072;2023-08-06T08:57:15;98563.52;;;14.51;91.01
77153;BME280;66124;51.146;17.072;2023-08-06T08:59:42;98560.08;;;14.51;90.90
77153;BME280;66124;51.146;17.072;2023-08-06T09:02:10;98551.73;;;14.49;90.80
77153;BME280;66124;51.146;17.072;2023-08-06T09:10:51;98528.84;;;14.47;90.78
77153;BME280;66124;51.146;17.072;2023-08-06T09:13:21;98550.11;;;14.58;90.88
77153;BME280;66124;51.146;17.072;2023-08-06T09:15:51;98548.19;;;14.58;90.82
77153;BME280;66124;51.146;17.072;2023-08-06T09:18:28;98548.77;;;14.58;90.73
77153;BME280;66124;51.146;17.072;2023-08-06T09:20:59;98545.44;;;14.54;90.61
77153;BME280;66124;51.146;17.072;2023-08-06T09:23:32;98552.23;;;14.55;90.74
77153;BME280;66124;51.146;17.072;2023-08-06T09:26:01;98559.04;;;14.55;90.66
77153;BME280;66124;51.146;17.072;2023-08-06T09:28:39;98556.98;;;14.57;90.77
77153;BME280;66124;51.146;17.072;2023-08-06T09:31:09;98554.91;;;14.57;90.75
77153;BME280;66124;51.146;17.072;2023-08-06T09:33:39;98553.04;;;14.56;90.76
77153;BME280;66124;51.146;17.072;2023-08-06T09:36:12;98550.71;;;14.57;90.73
77153;BME280;66124;51.146;17.072;2023-08-06T09:38:42;98556.44;;;14.57;90.78
77153;BME280;66124;51.146;17.072;2023-08-06T09:41:12;98550.09;;;14.57;90.70
77153;BME280;66124;51.146;17.072;2023-08-06T09:43:55;98552.30;;;14.56;90.69
77153;BME280;66124;51.146;17.072;2023-08-06T09:46:24;98545.08;;;14.55;90.74
77153;BME280;66124;51.146;17.072;2023-08-06T09:48:54;98551.61;;;14.55;90.71
77153;BME280;66124;51.146;17.072;2023-08-06T09:51:24;98555.37;;;14.55;90.78
77153;BME280;66124;51.146;17.072;2023-08-06T09:53:54;98561.73;;;14.55;90.77
77153;BME280;66124;51.146;17.072;2023-08-06T09:56:24;98564.08;;;14.57;90.68
77153;BME280;66124;51.146;17.072;2023-08-06T09:58:54;98568.36;;;14.59;90.68
77153;BME280;66124;51.146;17.072;2023-08-06T10:01:24;98576.08;;;14.60;90.72
77153;BME280;66124;51.146;17.072;2023-08-06T10:03:55;98579.23;;;14.62;90.67
77153;BME280;66124;51.146;17.072;2023-08-06T10:06:27;98578.77;;;14.63;90.74
77153;BME280;66124;51.146;17.072;2023-08-06T10:08:57;98575.88;;;14.65;90.74
77153;BME280;66124;51.146;17.072;2023-08-06T10:11:29;98575.70;;;14.64;90.72
77153;BME280;66124;51.146;17.072;2023-08-06T10:13:58;98556.48;;;14.51;90.73
77153;BME280;66124;51.146;17.072;2023-08-06T10:16:30;98570.22;;;14.58;90.73
77153;BME280;66124;51.146;17.072;2023-08-06T10:19:01;98571.84;;;14.57;90.84
77153;BME280;66124;51.146;17.072;2023-08-06T10:21:29;98565.19;;;14.56;90.89
77153;BME280;66124;51.146;17.072;2023-08-06T10:26:49;98534.66;;;14.57;90.72
77153;BME280;66124;51.146;17.072;2023-08-06T10:29:38;98514.95;;;14.54;90.98
77153;BME280;66124;51.146;17.072;2023-08-06T10:32:08;98510.79;;;14.54;91.07
77153;BME280;66124;51.146;17.072;2023-08-06T10:34:57;98500.01;;;14.53;91.09
77153;BME280;66124;51.146;17.072;2023-08-06T10:37:36;98509.98;;;14.53;91.20
77153;BME280;66124;51.146;17.072;2023-08-06T10:40:08;98513.29;;;14.54;91.30
77153;BME280;66124;51.146;17.072;2023-08-06T10:42:37;98513.52;;;14.56;91.29
77153;BME280;66124;51.146;17.072;2023-08-06T10:45:20;98508.22;;;14.57;91.23
77153;BME280;66124;51.146;17.072;2023-08-06T10:47:50;98498.80;;;14.58;91.37
77153;BME280;66124;51.146;17.072;2023-08-06T10:50:19;98500.83;;;14.60;91.36
77153;BME280;66124;51.146;17.072;2023-08-06T10:52:49;98501.92;;;14.61;91.23
77153;BME280;66124;51.146;17.072;2023-08-06T10:55:26;98492.58;;;14.61;91.36
77153;BME280;66124;51.146;17.072;2023-08-06T10:57:58;98494.45;;;14.63;91.42
77153;BME280;66124;51.146;17.072;2023-08-06T11:00:28;98471.89;;;14.53;91.35
77153;BME280;66124;51.146;17.072;2023-08-06T11:02:57;98488.52;;;14.67;91.42
77153;BME280;66124;51.146;17.072;2023-08-06T11:05:27;98480.27;;;14.70;91.43
77153;BME280;66124;51.146;17.072;2023-08-06T11:07:57;98469.18;;;14.71;91.50
77153;BME280;66124;51.146;17.072;2023-08-06T11:10:26;98475.57;;;14.77;91.41
77153;BME280;66124;51.146;17.072;2023-08-06T11:12:56;98473.00;;;14.80;91.50
77153;BME280;66124;51.146;17.072;2023-08-06T11:15:29;98470.69;;;14.83;91.41
77153;BME280;66124;51.146;17.072;2023-08-06T11:17:59;98464.77;;;14.85;91.36
77153;BME280;66124;51.146;17.072;2023-08-06T11:20:29;98472.58;;;14.85;91.27
77153;BME280;66124;51.146;17.072;2023-08-06T11:22:58;98469.16;;;14.84;91.31
77153;BME280;66124;51.146;17.072;2023-08-06T11:25:28;98467.97;;;14.81;91.21
77153;BME280;66124;51.146;17.072;2023-08-06T11:27:57;98468.13;;;14.82;91.37
77153;BME280;66124;51.146;17.072;2023-08-06T11:30:28;98466.84;;;14.76;91.38
77153;BME280;66124;51.146;17.072;2023-08-06T11:32:58;98471.09;;;14.81;91.39
77153;BME280;66124;51.146;17.072;2023-08-06T11:35:25;98464.09;;;14.81;91.39
77153;BME280;66124;51.146;17.072;2023-08-06T11:37:53;98466.45;;;14.84;91.41
77153;BME280;66124;51.146;17.072;2023-08-06T11:47:55;98466.55;;;14.87;91.38
77153;BME280;66124;51.146;17.072;2023-08-06T11:50:26;98467.02;;;14.87;91.32
77153;BME280;66124;51.146;17.072;2023-08-06T11:52:56;98470.04;;;14.90;91.34
77153;BME280;66124;51.146;17.072;2023-08-06T11:55:27;98472.27;;;14.92;91.15
77153;BME280;66124;51.146;17.072;2023-08-06T11:57:57;98469.71;;;14.91;91.36
77153;BME280;66124;51.146;17.072;2023-08-06T12:00:27;98473.00;;;14.91;91.34
77153;BME280;66124;51.146;17.072;2023-08-06T12:02:58;98478.52;;;14.90;91.40
77153;BME280;66124;51.146;17.072;2023-08-06T12:05:32;98485.18;;;14.93;91.38
77153;BME280;66124;51.146;17.072;2023-08-06T12:08:02;98484.52;;;14.95;91.32
77153;BME280;66124;51.146;17.072;2023-08-06T12:10:33;98486.04;;;14.93;91.28
77153;BME280;66124;51.146;17.072;2023-08-06T12:13:02;98490.81;;;14.93;91.20
77153;BME280;66124;51.146;17.072;2023-08-06T12:15:32;98498.12;;;14.92;91.31
77153;BME280;66124;51.146;17.072;2023-08-06T12:18:01;98501.41;;;14.91;91.23
77153;BME280;66124;51.146;17.072;2023-08-06T12:20:31;98506.55;;;14.90;91.40
77153;BME280;66124;51.146;17.072;2023-08-06T12:23:00;98505.61;;;14.87;91.24
77153;BME280;66124;51.146;17.072;2023-08-06T12:25:30;98510.07;;;14.87;91.23
77153;BME280;66124;51.146;17.072;2023-08-06T12:27:59;98505.86;;;14.86;91.19
77153;BME280;66124;51.146;17.072;2023-08-06T12:30:29;98512.06;;;14.85;91.19
77153;BME280;66124;51.146;17.072;2023-08-06T12:32:58;98517.71;;;14.87;91.31
77153;BME280;66124;51.146;17.072;2023-08-06T12:35:28;98518.93;;;14.87;91.09
77153;BME280;66124;51.146;17.072;2023-08-06T12:37:57;98520.46;;;14.87;91.24
77153;BME280;66124;51.146;17.072;2023-08-06T12:40:27;98524.73;;;14.88;91.29
77153;BME280;66124;51.146;17.072;2023-08-06T12:42:56;98527.39;;;14.88;91.29
77153;BME280;66124;51.146;17.072;2023-08-06T12:45:26;98529.46;;;14.88;91.21
77153;BME280;66124;51.146;17.072;2023-08-06T12:47:55;98536.85;;;14.89;91.20
77153;BME280;66124;51.146;17.072;2023-08-06T12:50:25;98537.58;;;14.88;91.15
77153;BME280;66124;51.146;17.072;2023-08-06T12:52:54;98537.73;;;14.88;91.28
77153;BME280;66124;51.146;17.072;2023-08-06T12:55:24;98539.17;;;14.89;91.36
77153;BME280;66124;51.146;17.072;2023-08-06T12:57:52;98541.77;;;14.89;91.23
77153;BME280;66124;51.146;17.072;2023-08-06T13:03:04;98542.76;;;14.96;91.45
77153;BME280;66124;51.146;17.072;2023-08-06T13:05:34;98546.48;;;14.96;91.26
77153;BME280;66124;51.146;17.072;2023-08-06T13:08:04;98549.98;;;14.97;91.30
77153;BME280;66124;51.146;17.072;2023-08-06T13:10:33;98555.20;;;14.99;91.52
77153;BME280;66124;51.146;17.072;2023-08-06T13:13:03;98557.21;;;15.00;91.33
77153;BME280;66124;51.146;17.072;2023-08-06T13:15:33;98558.27;;;15.01;91.15
77153;BME280;66124;51.146;17.072;2023-08-06T13:18:02;98561.01;;;15.03;91.39
77153;BME280;66124;51.146;17.072;2023-08-06T13:20:32;98565.08;;;15.03;91.37
77153;BME280;66124;51.146;17.072;2023-08-06T13:23:02;98566.14;;;15.02;91.27
77153;BME280;66124;51.146;17.072;2023-08-06T13:25:31;98564.86;;;15.01;91.15
77153;BME280;66124;51.146;17.072;2023-08-06T13:28:01;98561.45;;;15.01;91.28
77153;BME280;66124;51.146;17.072;2023-08-06T13:30:30;98574.36;;;15.02;91.12
77153;BME280;66124;51.146;17.072;2023-08-06T13:32:59;98577.75;;;15.00;91.20
77153;BME280;66124;51.146;17.072;2023-08-06T13:35:29;98579.65;;;14.99;91.20
77153;BME280;66124;51.146;17.072;2023-08-06T13:37:58;98581.02;;;14.99;91.24
77153;BME280;66124;51.146;17.072;2023-08-06T13:40:28;98585.23;;;14.97;91.10
77153;BME280;66124;51.146;17.072;2023-08-06T13:42:57;98591.86;;;14.96;91.12
77153;BME280;66124;51.146;17.072;2023-08-06T13:45:27;98593.07;;;14.95;90.98
77153;BME280;66124;51.146;17.072;2023-08-06T13:47:56;98596.33;;;14.96;90.97
77153;BME280;66124;51.146;17.072;2023-08-06T13:50:26;98601.80;;;14.97;91.03
77153;BME280;66124;51.146;17.072;2023-08-06T13:52:56;98607.80;;;14.97;91.06